createdAt,value
2022-11-15T00:02:09.699Z,118.40
2022-11-15T00:04:56.102Z,135.90
2022-11-15T00:07:55.256Z,140.40
2022-11-15T00:10:43.087Z,141.60
2022-11-15T00:13:30.631Z,133.00
2022-11-15T00:16:17.640Z,138.10
2022-11-15T00:19:04.051Z,138.10
2022-11-15T00:21:50.031Z,138.40
2022-11-15T00:24:36.330Z,143.10
2022-11-15T00:27:22.981Z,143.80
2022-11-15T00:30:09.788Z,140.00
2022-11-15T00:32:56.446Z,143.60
2022-11-15T00:35:43.110Z,138.70
2022-11-15T00:38:36.913Z,143.80
2022-11-15T00:41:23.255Z,134.70
2022-11-15T00:44:09.754Z,126.10
2022-11-15T00:46:56.321Z,126.90
2022-11-15T00:49:42.857Z,133.30
2022-11-15T00:52:29.308Z,127.10
2022-11-15T00:55:19.513Z,116.60
2022-11-15T00:58:06.045Z,124.40
2022-11-15T01:00:52.660Z,111.60
2022-11-15T01:03:40.376Z,115.50
2022-11-15T01:06:26.753Z,114.50
2022-11-15T01:09:14.578Z,115.10
2022-11-15T01:12:01.164Z,118.90
2022-11-15T01:14:47.555Z,116.80
2022-11-15T01:17:33.951Z,125.20
2022-11-15T01:20:20.341Z,127.60
2022-11-15T01:23:06.945Z,124.10
2022-11-15T01:25:53.176Z,131.70
2022-11-15T01:28:41.691Z,136.30
2022-11-15T01:31:27.816Z,131.50
2022-11-15T01:34:16.214Z,139.00
2022-11-15T01:37:02.543Z,131.00
2022-11-15T01:39:48.933Z,143.60
2022-11-15T01:42:35.273Z,142.40
2022-11-15T01:45:21.539Z,141.80
2022-11-15T01:48:09.442Z,133.10
2022-11-15T01:50:55.762Z,135.50
2022-11-15T01:53:43.736Z,134.90
2022-11-15T01:56:31.681Z,134.30
2022-11-15T01:59:19.064Z,141.00
2022-11-15T02:02:05.853Z,145.10
2022-11-15T02:04:52.127Z,140.90
2022-11-15T02:07:39.067Z,141.70
2022-11-15T02:10:25.955Z,146.50
2022-11-15T02:13:12.279Z,134.20
2022-11-15T02:16:04.931Z,137.70
2022-11-15T02:19:23.476Z,150.30
2022-11-15T02:22:25.019Z,142.60
2022-11-15T02:30:13.563Z,141.40
2022-11-15T02:33:09.883Z,146.00
2022-11-15T02:36:19.961Z,145.20
2022-11-15T02:39:22.210Z,141.00
2022-11-15T02:42:38.913Z,157.60
2022-11-15T02:45:30.275Z,143.20
2022-11-15T02:48:17.872Z,153.60
2022-11-15T02:51:04.626Z,148.80
2022-11-15T02:53:51.111Z,152.20
2022-11-15T02:56:37.690Z,140.60
2022-11-15T02:59:48.972Z,138.50
2022-11-15T03:03:03.426Z,143.90
2022-11-15T03:06:20.120Z,148.30
2022-11-15T03:09:12.779Z,134.80
2022-11-15T03:12:21.901Z,138.50
2022-11-15T03:15:21.729Z,139.70
2022-11-15T03:18:13.852Z,144.00
2022-11-15T03:21:03.382Z,146.10
2022-11-15T03:23:50.057Z,133.50
2022-11-15T03:26:38.096Z,140.50
2022-11-15T03:29:28.863Z,140.30
2022-11-15T03:32:18.197Z,141.90
2022-11-15T03:35:10.551Z,133.60
2022-11-15T03:38:20.984Z,137.10
2022-11-15T03:41:14.339Z,135.60
2022-11-15T03:58:01.589Z,131.80
2022-11-15T04:00:48.273Z,130.50
2022-11-15T04:03:34.986Z,132.10
2022-11-15T04:11:00.044Z,116.90
2022-11-15T04:13:48.618Z,111.80
2022-11-15T04:16:38.409Z,108.70
2022-11-15T04:24:35.199Z,108.80
2022-11-15T04:27:21.661Z,116.70
2022-11-15T04:30:08.948Z,110.60
2022-11-15T04:32:55.110Z,111.10
2022-11-15T04:35:43.190Z,103.60
2022-11-15T04:38:29.419Z,109.80
2022-11-15T04:41:16.052Z,113.90
2022-11-15T04:44:02.631Z,103.50
2022-11-15T04:46:49.122Z,91.20
2022-11-15T04:49:35.589Z,94.60
2022-11-15T04:57:09.541Z,96.70
2022-11-15T04:59:55.882Z,96.60
2022-11-15T05:03:01.147Z,96.80
2022-11-15T05:05:47.757Z,90.20
2022-11-15T05:08:34.236Z,95.70
2022-11-15T05:11:21.496Z,92.80
2022-11-15T05:14:07.785Z,87.10
2022-11-15T05:16:54.164Z,83.40
2022-11-15T05:19:40.656Z,83.30
2022-11-15T05:22:26.920Z,82.40
2022-11-15T05:29:32.744Z,83.80
2022-11-15T05:32:19.027Z,89.50
2022-11-15T05:35:06.665Z,86.80
2022-11-15T05:37:53.003Z,84.70
2022-11-15T05:40:39.262Z,81.90
2022-11-15T05:43:25.697Z,84.20
2022-11-15T05:46:30.469Z,83.80
2022-11-15T05:49:18.867Z,84.80
2022-11-15T05:52:09.025Z,81.80
2022-11-15T05:54:56.864Z,83.20
2022-11-15T05:57:42.979Z,81.10
2022-11-15T06:00:29.497Z,80.20
2022-11-15T06:03:15.670Z,80.10
2022-11-15T06:06:02.057Z,84.20
2022-11-15T06:08:48.949Z,83.20
2022-11-15T06:11:35.474Z,89.20
2022-11-15T06:14:21.892Z,79.20
2022-11-15T06:17:11.328Z,83.30
2022-11-15T06:19:57.914Z,82.40
2022-11-15T06:22:44.467Z,90.40
2022-11-15T06:25:31.151Z,96.20
2022-11-15T06:36:56.360Z,92.00
2022-11-15T06:39:42.516Z,78.50
2022-11-15T06:42:28.863Z,79.60
2022-11-15T06:45:15.520Z,82.80
2022-11-15T06:48:01.978Z,82.60
2022-11-15T06:50:59.387Z,114.60
2022-11-15T06:53:45.957Z,78.80
2022-11-15T06:56:32.193Z,81.20
2022-11-15T06:59:18.463Z,79.00
2022-11-15T07:02:04.826Z,78.10
2022-11-15T07:04:51.275Z,80.20
2022-11-15T07:07:38.189Z,77.40
2022-11-15T07:10:26.208Z,79.30
2022-11-15T07:13:12.280Z,85.50
2022-11-15T07:15:58.503Z,74.70
2022-11-15T07:18:44.901Z,80.20
2022-11-15T07:21:31.203Z,77.90
2022-11-15T07:24:17.812Z,78.00
2022-11-15T07:27:04.088Z,75.80
2022-11-15T07:29:50.603Z,72.80
2022-11-15T07:32:37.126Z,60.90
2022-11-15T07:35:23.941Z,54.60
2022-11-15T07:38:10.348Z,48.30
2022-11-15T07:40:58.713Z,44.30
2022-11-15T07:43:44.676Z,43.90
2022-11-15T07:46:32.178Z,42.20
2022-11-15T07:49:18.601Z,42.90
2022-11-15T07:52:05.433Z,41.60
2022-11-15T07:54:51.650Z,40.20
2022-11-15T07:57:38.361Z,41.20
2022-11-15T08:00:24.700Z,40.40
2022-11-15T08:03:13.286Z,42.20
2022-11-15T08:06:00.315Z,43.40
2022-11-15T08:08:47.931Z,42.20
2022-11-15T08:11:33.943Z,42.70
2022-11-15T08:14:23.021Z,43.70
2022-11-15T08:17:10.206Z,43.50
2022-11-15T08:19:56.621Z,44.80
2022-11-15T08:22:43.193Z,44.10
2022-11-15T08:25:31.066Z,45.90
2022-11-15T08:28:17.406Z,46.10
2022-11-15T08:31:04.602Z,45.60
2022-11-15T08:33:50.878Z,47.00
2022-11-15T08:36:44.559Z,48.90
2022-11-15T08:39:32.897Z,47.50
2022-11-15T08:42:20.196Z,49.70
2022-11-15T08:45:07.730Z,47.20
2022-11-15T08:47:54.869Z,47.80
2022-11-15T08:50:41.343Z,48.30
2022-11-15T08:53:27.717Z,49.40
2022-11-15T08:56:15.342Z,51.70
2022-11-15T08:59:01.783Z,48.10
2022-11-15T09:01:48.084Z,49.30
2022-11-15T09:04:34.776Z,47.30
2022-11-15T09:07:23.528Z,46.80
2022-11-15T09:10:10.103Z,47.20
2022-11-15T09:12:58.402Z,48.50
2022-11-15T09:15:45.387Z,49.50
2022-11-15T09:18:32.428Z,49.40
2022-11-15T09:21:19.391Z,47.70
2022-11-15T09:24:06.337Z,46.40
2022-11-15T09:26:52.992Z,47.50
2022-11-15T09:29:39.308Z,47.00
2022-11-15T09:32:31.297Z,47.50
2022-11-15T09:35:21.806Z,47.80
2022-11-15T09:38:08.256Z,47.30
2022-11-15T09:41:09.821Z,54.30
2022-11-15T09:44:21.165Z,45.10
2022-11-15T09:47:30.192Z,45.70
2022-11-15T09:50:15.792Z,46.40
2022-11-15T09:52:45.627Z,45.00
2022-11-15T09:55:22.138Z,46.40
2022-11-15T09:58:04.968Z,46.00
2022-11-15T10:00:46.423Z,49.50
2022-11-15T10:03:35.472Z,46.90
2022-11-15T10:06:05.454Z,44.80
2022-11-15T10:08:54.903Z,44.50
2022-11-15T10:11:41.462Z,47.20
2022-11-15T10:14:24.804Z,46.80
2022-11-15T10:17:19.807Z,45.70
2022-11-15T10:19:54.646Z,44.70
2022-11-15T10:22:39.416Z,45.70
2022-11-15T10:25:10.035Z,46.60
2022-11-15T10:27:37.776Z,45.50
2022-11-15T10:30:12.545Z,45.80
2022-11-15T10:32:41.664Z,44.80
2022-11-15T10:35:30.427Z,45.50
2022-11-15T10:38:10.041Z,49.60
2022-11-15T10:40:39.810Z,46.00
2022-11-15T10:43:10.507Z,45.50
2022-11-15T10:45:39.221Z,45.80
2022-11-15T10:48:12.962Z,45.90
2022-11-15T10:50:45.525Z,46.20
2022-11-15T10:53:34.517Z,44.80
2022-11-15T10:56:08.729Z,42.40
2022-11-15T10:58:39.695Z,42.40
2022-11-15T11:01:15.229Z,41.30
2022-11-15T11:03:44.664Z,44.40
2022-11-15T11:06:18.465Z,44.60
2022-11-15T11:09:01.243Z,43.80
2022-11-15T11:11:52.538Z,43.40
2022-11-15T11:14:22.601Z,41.50
2022-11-15T11:16:55.387Z,43.50
2022-11-15T11:19:47.558Z,43.50
2022-11-15T11:22:37.835Z,39.20
2022-11-15T11:25:38.581Z,37.50
2022-11-15T11:28:44.136Z,38.90
2022-11-15T11:31:29.838Z,38.60
2022-11-15T11:34:37.852Z,38.10
2022-11-15T11:37:30.284Z,36.90
2022-11-15T11:40:23.992Z,37.30
2022-11-15T11:43:00.484Z,35.50
2022-11-15T11:45:37.019Z,36.20
2022-11-15T11:48:29.332Z,35.30
2022-11-15T11:51:05.787Z,34.50
2022-11-15T11:54:09.392Z,34.50
2022-11-15T11:56:39.482Z,35.20
2022-11-15T11:59:29.856Z,35.10
2022-11-15T12:01:58.540Z,33.50
2022-11-15T12:04:39.428Z,32.70
2022-11-15T12:07:17.039Z,33.00
2022-11-15T12:09:52.312Z,33.40
2022-11-15T12:12:24.875Z,32.70
2022-11-15T12:15:11.104Z,32.90
2022-11-15T12:17:41.035Z,32.70
2022-11-15T12:20:26.398Z,32.70
2022-11-15T12:23:00.028Z,32.30
2022-11-15T12:25:46.810Z,33.90
2022-11-15T12:28:36.324Z,34.40
2022-11-15T12:31:12.051Z,33.90
2022-11-15T12:33:44.755Z,33.70
2022-11-15T12:36:21.536Z,34.10
2022-11-15T12:38:56.835Z,33.20
2022-11-15T12:41:35.941Z,64.60
2022-11-15T12:44:05.242Z,84.00
2022-11-15T12:46:32.775Z,41.30
2022-11-15T12:49:03.495Z,80.60
2022-11-15T12:51:43.439Z,73.60
2022-11-15T12:54:40.011Z,60.00
2022-11-15T12:57:07.671Z,43.30
2022-11-15T13:00:02.713Z,37.30
2022-11-15T13:02:46.495Z,38.10
2022-11-15T13:05:20.468Z,38.20
2022-11-15T13:07:48.039Z,39.10
2022-11-15T13:10:28.468Z,40.00
2022-11-15T13:13:01.900Z,38.30
2022-11-15T13:15:41.341Z,42.10
2022-11-15T13:18:34.148Z,39.90
2022-11-15T13:21:23.471Z,41.10
2022-11-15T13:23:55.771Z,46.30
2022-11-15T13:26:24.401Z,48.60
2022-11-15T13:28:55.653Z,42.60
2022-11-15T13:31:38.665Z,39.60
2022-11-15T13:34:50.549Z,39.70
2022-11-15T13:37:23.042Z,38.20
2022-11-15T13:39:50.849Z,38.00
2022-11-15T13:42:20.555Z,41.40
2022-11-15T13:45:00.357Z,40.80
2022-11-15T13:47:29.998Z,39.40
2022-11-15T13:49:58.691Z,38.50
2022-11-15T13:52:32.658Z,44.80
2022-11-15T13:55:09.345Z,44.00
2022-11-15T13:57:46.096Z,44.20
2022-11-15T14:00:40.250Z,43.80
2022-11-15T14:03:22.516Z,44.70
2022-11-15T14:06:13.166Z,45.90
2022-11-15T14:08:42.339Z,46.10
2022-11-15T14:11:16.931Z,44.80
2022-11-15T14:14:13.132Z,54.10
2022-11-15T14:16:46.039Z,52.90
2022-11-15T14:19:26.009Z,47.30
2022-11-15T14:22:18.552Z,49.80
2022-11-15T14:24:48.699Z,49.40
2022-11-15T14:27:22.419Z,49.50
2022-11-15T14:29:50.610Z,52.10
2022-11-15T14:32:26.795Z,70.00
2022-11-15T14:34:56.879Z,55.00
2022-11-15T14:37:28.976Z,56.60
2022-11-15T14:39:56.635Z,59.80
2022-11-15T14:42:24.784Z,61.40
2022-11-15T14:44:52.652Z,60.00
2022-11-15T14:47:20.431Z,49.30
2022-11-15T14:49:48.128Z,54.80
2022-11-15T14:52:32.903Z,51.60
2022-11-15T14:55:03.236Z,52.60
2022-11-15T14:57:31.277Z,58.20
2022-11-15T14:59:58.893Z,49.60
2022-11-15T15:02:41.892Z,52.10
2022-11-15T15:05:24.568Z,52.10
2022-11-15T15:07:54.126Z,61.70
2022-11-15T15:10:39.473Z,71.70
2022-11-15T15:13:21.946Z,62.30
2022-11-15T15:15:50.965Z,79.20
2022-11-15T15:18:20.985Z,78.50
2022-11-15T15:20:55.833Z,74.20
2022-11-15T15:23:24.924Z,79.00
2022-11-15T15:25:53.727Z,81.50
2022-11-15T15:28:21.357Z,79.20
2022-11-15T15:30:50.375Z,84.40
2022-11-15T15:33:17.957Z,87.00
2022-11-15T15:35:45.576Z,81.00
2022-11-15T15:38:13.516Z,83.50
2022-11-15T15:40:41.212Z,79.80
2022-11-15T15:43:10.165Z,85.70
2022-11-15T15:45:40.372Z,92.20
2022-11-15T15:48:13.191Z,93.40
2022-11-15T15:50:41.218Z,95.40
2022-11-15T15:53:09.141Z,92.70
2022-11-15T15:55:37.852Z,90.50
2022-11-15T15:58:06.011Z,87.00
2022-11-15T16:00:36.760Z,83.90
2022-11-15T16:03:04.416Z,93.10
2022-11-15T16:05:32.091Z,90.40
2022-11-15T16:07:59.769Z,90.80
2022-11-15T16:10:29.574Z,89.00
2022-11-15T16:12:58.513Z,102.30
2022-11-15T16:15:28.432Z,103.80
2022-11-15T16:18:00.772Z,109.20
2022-11-15T16:20:40.245Z,111.60
2022-11-15T16:23:10.625Z,112.10
2022-11-15T16:25:46.114Z,112.00
2022-11-15T16:28:30.092Z,108.70
2022-11-15T16:31:06.404Z,109.10
2022-11-15T16:33:34.586Z,112.30
2022-11-15T16:36:03.249Z,111.00
2022-11-15T16:38:31.849Z,111.80
2022-11-15T16:40:59.925Z,119.10
2022-11-15T16:43:35.079Z,104.10
2022-11-15T16:46:14.000Z,118.80
2022-11-15T16:48:41.598Z,125.70
2022-11-15T16:51:09.219Z,138.20
2022-11-15T16:53:38.056Z,156.40
2022-11-15T16:56:15.217Z,140.40
2022-11-15T16:58:42.805Z,149.10
2022-11-15T17:01:18.151Z,165.00
2022-11-15T17:03:46.200Z,158.10
2022-11-15T17:06:15.180Z,157.20
2022-11-15T17:08:42.788Z,177.10
2022-11-15T17:11:13.978Z,198.80
2022-11-15T17:13:41.636Z,178.70
2022-11-15T17:16:11.895Z,154.80
2022-11-15T17:18:40.600Z,196.10
2022-11-15T17:21:14.322Z,220.80
2022-11-15T17:23:42.646Z,192.60
2022-11-15T17:26:28.812Z,209.10
2022-11-15T17:28:57.549Z,237.80
2022-11-15T17:31:25.511Z,219.30
2022-11-15T17:33:53.382Z,238.30
2022-11-15T17:36:21.069Z,214.30
2022-11-15T17:38:58.089Z,251.50
2022-11-15T17:41:28.451Z,275.50
2022-11-15T17:43:58.377Z,268.80
2022-11-15T17:46:26.835Z,260.30
2022-11-15T17:48:55.873Z,290.80
2022-11-15T17:51:26.596Z,257.30
2022-11-15T17:53:55.569Z,252.20
2022-11-15T17:56:25.906Z,215.40
2022-11-15T17:58:58.591Z,265.30
2022-11-15T18:01:29.980Z,267.00
2022-11-15T18:04:00.531Z,241.00
2022-11-15T18:06:31.458Z,200.00
2022-11-15T18:08:59.609Z,279.40
2022-11-15T18:11:38.328Z,274.20
2022-11-15T18:14:08.278Z,214.70
2022-11-15T18:16:37.223Z,307.00
2022-11-15T18:19:09.040Z,305.60
2022-11-15T18:21:56.225Z,283.60
2022-11-15T18:24:36.681Z,285.90
2022-11-15T18:27:05.736Z,253.00
2022-11-15T18:29:37.521Z,278.60
2022-11-15T18:32:11.509Z,289.20
2022-11-15T18:34:39.378Z,318.90
2022-11-15T18:37:07.220Z,295.70
2022-11-15T18:39:35.320Z,272.50
2022-11-15T18:42:03.248Z,321.00
2022-11-15T18:44:31.027Z,365.10
2022-11-15T18:46:58.677Z,338.70
2022-11-15T18:49:26.259Z,350.70
2022-11-15T18:51:53.881Z,321.30
2022-11-15T18:54:22.810Z,366.50
2022-11-15T18:56:53.205Z,291.90
2022-11-15T18:59:20.803Z,284.60
2022-11-15T19:01:50.084Z,299.60
2022-11-15T19:04:19.785Z,258.20
2022-11-15T19:06:49.390Z,272.00
2022-11-15T19:09:18.261Z,293.10
2022-11-15T19:11:47.149Z,327.40
2022-11-15T19:14:16.366Z,271.80
2022-11-15T19:16:49.929Z,325.60
2022-11-15T19:19:25.376Z,365.30
2022-11-15T19:21:53.108Z,348.90
2022-11-15T19:24:20.760Z,323.10
2022-11-15T19:26:48.495Z,358.70
2022-11-15T19:29:17.192Z,477.90
2022-11-15T19:31:45.185Z,385.20
2022-11-15T19:34:12.923Z,311.20
2022-11-15T19:36:42.155Z,344.10
2022-11-15T19:39:12.840Z,355.60
2022-11-15T19:41:47.762Z,374.50
2022-11-15T19:44:15.532Z,370.30
2022-11-15T19:46:44.341Z,399.10
2022-11-15T19:49:12.286Z,390.90
2022-11-15T19:51:42.468Z,369.90
2022-11-15T19:54:10.722Z,383.00
2022-11-15T19:56:40.048Z,342.30
2022-11-15T19:59:11.480Z,379.50
2022-11-15T20:01:39.657Z,424.50
2022-11-15T20:04:10.141Z,421.90
2022-11-15T20:06:40.921Z,391.20
2022-11-15T20:09:12.825Z,480.50
2022-11-15T20:11:40.539Z,418.30
2022-11-15T20:14:09.722Z,456.10
2022-11-15T20:16:37.584Z,437.80
2022-11-15T20:19:05.409Z,511.10
2022-11-15T20:21:33.007Z,499.20
2022-11-15T20:24:00.649Z,731.90
2022-11-15T20:26:29.159Z,515.60
2022-11-15T20:29:01.211Z,545.70
2022-11-15T20:31:29.523Z,554.20
2022-11-15T20:33:57.663Z,575.10
2022-11-15T20:36:25.505Z,516.20
2022-11-15T20:38:59.330Z,535.40
2022-11-15T20:41:27.876Z,543.00
2022-11-15T20:43:55.587Z,533.10
2022-11-15T20:46:23.170Z,549.10
2022-11-15T20:48:50.815Z,471.20
2022-11-15T20:51:18.856Z,503.40
2022-11-15T20:53:47.383Z,522.50
2022-11-15T20:56:17.799Z,494.80
2022-11-15T20:58:45.841Z,493.60
2022-11-15T21:01:15.601Z,500.30
2022-11-15T21:03:43.863Z,513.30
2022-11-15T21:06:11.816Z,472.80
2022-11-15T21:08:58.062Z,447.30
2022-11-15T21:11:44.553Z,497.90
2022-11-15T21:14:12.206Z,474.40
2022-11-15T21:16:39.920Z,492.80
2022-11-15T21:19:07.777Z,508.20
2022-11-15T21:21:36.026Z,482.40
2022-11-15T21:24:05.405Z,530.30
2022-11-15T21:26:33.595Z,506.20
2022-11-15T21:29:01.305Z,488.50
2022-11-15T21:31:29.578Z,519.10
2022-11-15T21:33:57.159Z,490.70
2022-11-15T21:36:25.211Z,531.80
2022-11-15T21:38:53.720Z,493.70
2022-11-15T21:41:21.435Z,495.60
2022-11-15T21:43:49.061Z,495.00
2022-11-15T21:46:16.757Z,441.50
2022-11-15T21:48:44.390Z,491.70
2022-11-15T21:51:12.525Z,492.60
2022-11-15T21:53:40.254Z,437.80
2022-11-15T21:56:08.313Z,467.10
2022-11-15T21:58:36.411Z,431.00
2022-11-15T22:01:23.405Z,431.20
2022-11-15T22:03:51.208Z,431.50
2022-11-15T22:06:18.907Z,390.30
2022-11-15T22:08:46.703Z,423.80
2022-11-15T22:11:15.062Z,376.90
2022-11-15T22:13:43.072Z,429.10
2022-11-15T22:16:10.894Z,442.00
2022-11-15T22:18:39.407Z,405.10
2022-11-15T22:21:15.890Z,369.00
2022-11-15T22:23:44.349Z,289.60
2022-11-15T22:26:19.412Z,280.50
2022-11-15T22:28:49.909Z,317.10
2022-11-15T22:31:17.638Z,289.20
2022-11-15T22:33:45.472Z,261.00
2022-11-15T22:36:13.392Z,249.50
2022-11-15T22:38:41.112Z,282.30
2022-11-15T22:41:09.198Z,278.60
2022-11-15T22:43:36.987Z,242.00
2022-11-15T22:46:05.345Z,246.00
2022-11-15T22:48:38.331Z,261.70
2022-11-15T22:51:07.069Z,199.80
2022-11-15T22:53:34.835Z,202.60
2022-11-15T22:56:04.409Z,229.10
2022-11-15T22:58:33.153Z,187.30
2022-11-15T23:01:02.900Z,206.00
2022-11-15T23:03:31.520Z,156.30
2022-11-15T23:06:06.989Z,164.60
2022-11-15T23:08:35.280Z,162.10
2022-11-15T23:11:22.848Z,160.50
2022-11-15T23:13:52.077Z,164.00
2022-11-15T23:16:23.906Z,150.50
2022-11-15T23:18:59.162Z,144.10
2022-11-15T23:21:53.814Z,135.70
2022-11-15T23:24:22.030Z,151.70
2022-11-15T23:26:52.474Z,166.00
2022-11-15T23:29:21.864Z,161.60
2022-11-15T23:32:08.439Z,148.90
2022-11-15T23:34:38.547Z,159.20
2022-11-15T23:37:07.720Z,151.40
2022-11-15T23:39:35.452Z,168.00
2022-11-15T23:42:08.784Z,185.70
2022-11-15T23:44:37.197Z,174.60
2022-11-15T23:47:04.894Z,160.20
2022-11-15T23:49:32.685Z,172.70
2022-11-15T23:52:00.377Z,166.20
2022-11-15T23:54:28.071Z,151.90
2022-11-15T23:56:55.707Z,168.30
2022-11-15T23:59:23.355Z,160.80
